sensor_id;sensor_type;location;lat;lon;timestamp;P1;durP1;ratioP1;P2;durP2;ratioP2
28483;SDS011;15704;48.834;8.736;2023-04-24T00:02:19;2.15;;;0.80;;
28483;SDS011;15704;48.834;8.736;2023-04-24T00:04:47;2.10;;;0.73;;
28483;SDS011;15704;48.834;8.736;2023-04-24T00:07:15;1.95;;;0.70;;
28483;SDS011;15704;48.834;8.736;2023-04-24T00:09:43;1.45;;;0.73;;
28483;SDS011;15704;48.834;8.736;2023-04-24T00:12:10;2.53;;;0.98;;
28483;SDS011;15704;48.834;8.736;2023-04-24T00:14:37;2.40;;;1.08;;
28483;SDS011;15704;48.834;8.736;2023-04-24T00:17:04;2.63;;;0.77;;
28483;SDS011;15704;48.834;8.736;2023-04-24T00:19:31;4.82;;;1.02;;
28483;SDS011;15704;48.834;8.736;2023-04-24T00:21:58;1.50;;;0.90;;
28483;SDS011;15704;48.834;8.736;2023-04-24T00:24:25;2.25;;;0.93;;
28483;SDS011;15704;48.834;8.736;2023-04-24T00:26:52;2.05;;;1.02;;
28483;SDS011;15704;48.834;8.736;2023-04-24T00:29:18;1.65;;;1.00;;
28483;SDS011;15704;48.834;8.736;2023-04-24T00:31:45;6.15;;;1.15;;
28483;SDS011;15704;48.834;8.736;2023-04-24T00:34:12;2.20;;;0.85;;
28483;SDS011;15704;48.834;8.736;2023-04-24T00:36:39;4.15;;;0.80;;
28483;SDS011;15704;48.834;8.736;2023-04-24T00:39:06;5.38;;;1.02;;
28483;SDS011;15704;48.834;8.736;2023-04-24T00:41:36;3.00;;;1.00;;
28483;SDS011;15704;48.834;8.736;2023-04-24T00:44:03;2.25;;;0.90;;
28483;SDS011;15704;48.834;8.736;2023-04-24T00:46:30;5.22;;;0.95;;
28483;SDS011;15704;48.834;8.736;2023-04-24T00:48:58;1.58;;;1.02;;
28483;SDS011;15704;48.834;8.736;2023-04-24T00:51:25;1.67;;;0.98;;
28483;SDS011;15704;48.834;8.736;2023-04-24T00:53:53;6.43;;;1.13;;
28483;SDS011;15704;48.834;8.736;2023-04-24T00:56:20;3.65;;;1.00;;
28483;SDS011;15704;48.834;8.736;2023-04-24T00:58:47;3.60;;;2.20;;
28483;SDS011;15704;48.834;8.736;2023-04-24T01:01:14;0.88;;;0.57;;
28483;SDS011;15704;48.834;8.736;2023-04-24T01:03:41;1.63;;;0.90;;
28483;SDS011;15704;48.834;8.736;2023-04-24T01:06:09;3.20;;;0.80;;
28483;SDS011;15704;48.834;8.736;2023-04-24T01:08:36;4.55;;;1.35;;
28483;SDS011;15704;48.834;8.736;2023-04-24T01:11:36;2.30;;;0.88;;
28483;SDS011;15704;48.834;8.736;2023-04-24T01:14:03;0.98;;;0.80;;
28483;SDS011;15704;48.834;8.736;2023-04-24T01:16:30;3.40;;;1.15;;
28483;SDS011;15704;48.834;8.736;2023-04-24T01:18:57;1.77;;;0.98;;
28483;SDS011;15704;48.834;8.736;2023-04-24T01:21:24;1.08;;;0.80;;
28483;SDS011;15704;48.834;8.736;2023-04-24T01:23:56;1.25;;;0.70;;
28483;SDS011;15704;48.834;8.736;2023-04-24T01:26:22;1.70;;;0.70;;
28483;SDS011;15704;48.834;8.736;2023-04-24T01:28:51;1.33;;;0.80;;
28483;SDS011;15704;48.834;8.736;2023-04-24T01:31:19;1.23;;;0.82;;
28483;SDS011;15704;48.834;8.736;2023-04-24T01:33:46;1.58;;;0.90;;
28483;SDS011;15704;48.834;8.736;2023-04-24T01:36:13;1.83;;;0.77;;
28483;SDS011;15704;48.834;8.736;2023-04-24T01:38:42;3.72;;;1.20;;
28483;SDS011;15704;48.834;8.736;2023-04-24T01:41:10;1.67;;;0.80;;
28483;SDS011;15704;48.834;8.736;2023-04-24T01:43:37;6.07;;;1.00;;
28483;SDS011;15704;48.834;8.736;2023-04-24T01:46:04;1.50;;;0.73;;
28483;SDS011;15704;48.834;8.736;2023-04-24T01:48:31;1.95;;;0.75;;
28483;SDS011;15704;48.834;8.736;2023-04-24T01:50:58;2.88;;;0.80;;
28483;SDS011;15704;48.834;8.736;2023-04-24T01:53:25;1.60;;;0.77;;
28483;SDS011;15704;48.834;8.736;2023-04-24T01:55:52;1.83;;;1.00;;
28483;SDS011;15704;48.834;8.736;2023-04-24T01:58:21;4.72;;;0.93;;
28483;SDS011;15704;48.834;8.736;2023-04-24T02:00:55;1.35;;;1.10;;
28483;SDS011;15704;48.834;8.736;2023-04-24T02:03:22;1.65;;;0.90;;
28483;SDS011;15704;48.834;8.736;2023-04-24T02:05:50;3.40;;;0.60;;
28483;SDS011;15704;48.834;8.736;2023-04-24T02:08:17;1.35;;;1.00;;
28483;SDS011;15704;48.834;8.736;2023-04-24T02:10:46;2.47;;;1.00;;
28483;SDS011;15704;48.834;8.736;2023-04-24T02:13:15;1.55;;;0.80;;
28483;SDS011;15704;48.834;8.736;2023-04-24T02:15:42;3.20;;;0.82;;
28483;SDS011;15704;48.834;8.736;2023-04-24T02:18:09;2.85;;;0.88;;
28483;SDS011;15704;48.834;8.736;2023-04-24T02:20:37;2.75;;;0.90;;
28483;SDS011;15704;48.834;8.736;2023-04-24T02:23:04;2.17;;;1.00;;
28483;SDS011;15704;48.834;8.736;2023-04-24T02:25:31;1.80;;;0.93;;
28483;SDS011;15704;48.834;8.736;2023-04-24T02:27:57;1.38;;;0.80;;
28483;SDS011;15704;48.834;8.736;2023-04-24T02:30:24;2.60;;;0.93;;
28483;SDS011;15704;48.834;8.736;2023-04-24T02:32:51;4.35;;;0.80;;
28483;SDS011;15704;48.834;8.736;2023-04-24T02:35:18;2.65;;;0.63;;
28483;SDS011;15704;48.834;8.736;2023-04-24T02:37:45;5.88;;;1.08;;
28483;SDS011;15704;48.834;8.736;2023-04-24T02:40:23;1.38;;;0.95;;
28483;SDS011;15704;48.834;8.736;2023-04-24T02:42:50;3.75;;;1.20;;
28483;SDS011;15704;48.834;8.736;2023-04-24T02:45:16;7.88;;;1.10;;
28483;SDS011;15704;48.834;8.736;2023-04-24T02:47:43;2.88;;;1.02;;
28483;SDS011;15704;48.834;8.736;2023-04-24T02:50:12;2.25;;;0.88;;
28483;SDS011;15704;48.834;8.736;2023-04-24T02:52:43;3.35;;;1.00;;
28483;SDS011;15704;48.834;8.736;2023-04-24T02:55:10;3.13;;;1.10;;
28483;SDS011;15704;48.834;8.736;2023-04-24T02:57:37;2.20;;;1.00;;
28483;SDS011;15704;48.834;8.736;2023-04-24T03:00:04;1.40;;;0.95;;
28483;SDS011;15704;48.834;8.736;2023-04-24T03:02:33;5.10;;;1.27;;
28483;SDS011;15704;48.834;8.736;2023-04-24T03:05:00;2.55;;;1.00;;
28483;SDS011;15704;48.834;8.736;2023-04-24T03:07:28;5.03;;;1.48;;
28483;SDS011;15704;48.834;8.736;2023-04-24T03:09:55;4.20;;;1.20;;
28483;SDS011;15704;48.834;8.736;2023-04-24T03:12:23;2.55;;;1.20;;
28483;SDS011;15704;48.834;8.736;2023-04-24T03:14:50;2.22;;;1.33;;
28483;SDS011;15704;48.834;8.736;2023-04-24T03:17:17;2.78;;;1.52;;
28483;SDS011;15704;48.834;8.736;2023-04-24T03:19:50;1.45;;;0.95;;
28483;SDS011;15704;48.834;8.736;2023-04-24T03:22:16;1.70;;;1.08;;
28483;SDS011;15704;48.834;8.736;2023-04-24T03:24:43;3.75;;;1.00;;
28483;SDS011;15704;48.834;8.736;2023-04-24T03:27:10;1.92;;;1.20;;
28483;SDS011;15704;48.834;8.736;2023-04-24T03:29:36;7.90;;;1.30;;
28483;SDS011;15704;48.834;8.736;2023-04-24T03:32:03;6.10;;;1.25;;
28483;SDS011;15704;48.834;8.736;2023-04-24T03:34:30;3.33;;;1.20;;
28483;SDS011;15704;48.834;8.736;2023-04-24T03:36:58;4.38;;;2.10;;
28483;SDS011;15704;48.834;8.736;2023-04-24T03:39:25;1.40;;;1.20;;
28483;SDS011;15704;48.834;8.736;2023-04-24T03:41:51;2.80;;;1.08;;
28483;SDS011;15704;48.834;8.736;2023-04-24T03:44:18;5.53;;;1.10;;
28483;SDS011;15704;48.834;8.736;2023-04-24T03:46:45;4.82;;;1.70;;
28483;SDS011;15704;48.834;8.736;2023-04-24T03:49:12;2.05;;;1.30;;
28483;SDS011;15704;48.834;8.736;2023-04-24T03:54:28;1.75;;;0.90;;
28483;SDS011;15704;48.834;8.736;2023-04-24T03:56:55;2.65;;;0.95;;
28483;SDS011;15704;48.834;8.736;2023-04-24T03:59:22;3.33;;;0.98;;
28483;SDS011;15704;48.834;8.736;2023-04-24T04:01:49;3.03;;;1.50;;
28483;SDS011;15704;48.834;8.736;2023-04-24T04:04:15;3.42;;;1.17;;
28483;SDS011;15704;48.834;8.736;2023-04-24T04:06:43;1.33;;;0.80;;
28483;SDS011;15704;48.834;8.736;2023-04-24T04:09:10;1.35;;;1.10;;
28483;SDS011;15704;48.834;8.736;2023-04-24T04:11:37;3.42;;;1.08;;
28483;SDS011;15704;48.834;8.736;2023-04-24T04:14:04;1.67;;;0.95;;
28483;SDS011;15704;48.834;8.736;2023-04-24T04:16:31;2.97;;;1.20;;
28483;SDS011;15704;48.834;8.736;2023-04-24T04:18:58;3.45;;;1.73;;
28483;SDS011;15704;48.834;8.736;2023-04-24T04:21:25;7.88;;;2.63;;
28483;SDS011;15704;48.834;8.736;2023-04-24T04:23:53;3.20;;;1.70;;
28483;SDS011;15704;48.834;8.736;2023-04-24T04:26:19;2.30;;;1.40;;
28483;SDS011;15704;48.834;8.736;2023-04-24T04:28:48;1.90;;;1.27;;
28483;SDS011;15704;48.834;8.736;2023-04-24T04:31:16;3.47;;;1.58;;
28483;SDS011;15704;48.834;8.736;2023-04-24T04:33:42;4.88;;;1.40;;
28483;SDS011;15704;48.834;8.736;2023-04-24T04:36:09;2.40;;;1.70;;
28483;SDS011;15704;48.834;8.736;2023-04-24T04:38:36;1.77;;;1.60;;
28483;SDS011;15704;48.834;8.736;2023-04-24T04:41:03;6.95;;;2.28;;
28483;SDS011;15704;48.834;8.736;2023-04-24T04:43:30;2.35;;;1.73;;
28483;SDS011;15704;48.834;8.736;2023-04-24T04:45:57;3.10;;;1.83;;
28483;SDS011;15704;48.834;8.736;2023-04-24T04:48:24;3.30;;;1.60;;
28483;SDS011;15704;48.834;8.736;2023-04-24T04:50:50;3.35;;;1.60;;
28483;SDS011;15704;48.834;8.736;2023-04-24T04:53:17;2.75;;;1.83;;
28483;SDS011;15704;48.834;8.736;2023-04-24T04:55:44;3.33;;;1.95;;
28483;SDS011;15704;48.834;8.736;2023-04-24T04:58:12;5.07;;;2.17;;
28483;SDS011;15704;48.834;8.736;2023-04-24T05:00:51;3.90;;;1.98;;
28483;SDS011;15704;48.834;8.736;2023-04-24T05:03:18;4.22;;;1.80;;
28483;SDS011;15704;48.834;8.736;2023-04-24T05:05:47;5.47;;;2.10;;
28483;SDS011;15704;48.834;8.736;2023-04-24T05:08:13;3.70;;;1.90;;
28483;SDS011;15704;48.834;8.736;2023-04-24T05:10:43;6.18;;;2.42;;
28483;SDS011;15704;48.834;8.736;2023-04-24T05:13:10;4.38;;;2.70;;
28483;SDS011;15704;48.834;8.736;2023-04-24T05:15:42;4.38;;;2.53;;
28483;SDS011;15704;48.834;8.736;2023-04-24T05:18:11;3.50;;;2.17;;
28483;SDS011;15704;48.834;8.736;2023-04-24T05:20:38;2.92;;;2.50;;
28483;SDS011;15704;48.834;8.736;2023-04-24T05:23:05;6.43;;;2.42;;
28483;SDS011;15704;48.834;8.736;2023-04-24T05:25:32;4.40;;;2.20;;
28483;SDS011;15704;48.834;8.736;2023-04-24T05:28:01;2.85;;;2.28;;
28483;SDS011;15704;48.834;8.736;2023-04-24T05:30:28;6.57;;;2.45;;
28483;SDS011;15704;48.834;8.736;2023-04-24T05:32:55;7.60;;;2.10;;
28483;SDS011;15704;48.834;8.736;2023-04-24T05:35:22;2.97;;;2.20;;
28483;SDS011;15704;48.834;8.736;2023-04-24T05:37:49;3.83;;;2.47;;
28483;SDS011;15704;48.834;8.736;2023-04-24T05:40:15;2.13;;;1.90;;
28483;SDS011;15704;48.834;8.736;2023-04-24T05:42:42;3.45;;;2.20;;
28483;SDS011;15704;48.834;8.736;2023-04-24T05:45:09;5.18;;;2.17;;
28483;SDS011;15704;48.834;8.736;2023-04-24T05:47:41;2.88;;;1.90;;
28483;SDS011;15704;48.834;8.736;2023-04-24T05:50:07;3.78;;;2.03;;
28483;SDS011;15704;48.834;8.736;2023-04-24T05:52:34;2.50;;;1.80;;
28483;SDS011;15704;48.834;8.736;2023-04-24T05:55:01;4.53;;;1.90;;
28483;SDS011;15704;48.834;8.736;2023-04-24T05:57:28;3.65;;;2.08;;
28483;SDS011;15704;48.834;8.736;2023-04-24T05:59:55;2.28;;;1.63;;
28483;SDS011;15704;48.834;8.736;2023-04-24T06:02:22;2.28;;;1.70;;
28483;SDS011;15704;48.834;8.736;2023-04-24T06:04:49;7.20;;;2.13;;
28483;SDS011;15704;48.834;8.736;2023-04-24T06:07:17;3.17;;;1.73;;
28483;SDS011;15704;48.834;8.736;2023-04-24T06:09:43;3.50;;;1.90;;
28483;SDS011;15704;48.834;8.736;2023-04-24T06:12:11;1.98;;;1.77;;
28483;SDS011;15704;48.834;8.736;2023-04-24T06:14:37;2.33;;;1.73;;
28483;SDS011;15704;48.834;8.736;2023-04-24T06:17:04;3.50;;;1.75;;
28483;SDS011;15704;48.834;8.736;2023-04-24T06:19:32;3.95;;;1.70;;
28483;SDS011;15704;48.834;8.736;2023-04-24T06:21:58;2.50;;;1.80;;
28483;SDS011;15704;48.834;8.736;2023-04-24T06:24:28;2.60;;;1.65;;
28483;SDS011;15704;48.834;8.736;2023-04-24T06:26:55;2.05;;;1.85;;
28483;SDS011;15704;48.834;8.736;2023-04-24T06:29:23;2.55;;;1.90;;
28483;SDS011;15704;48.834;8.736;2023-04-24T06:31:50;13.55;;;3.33;;
28483;SDS011;15704;48.834;8.736;2023-04-24T06:34:17;7.43;;;1.90;;
28483;SDS011;15704;48.834;8.736;2023-04-24T06:36:44;4.10;;;1.73;;
28483;SDS011;15704;48.834;8.736;2023-04-24T06:39:12;4.07;;;2.00;;
28483;SDS011;15704;48.834;8.736;2023-04-24T06:41:39;3.90;;;2.05;;
28483;SDS011;15704;48.834;8.736;2023-04-24T06:44:06;2.30;;;1.85;;
28483;SDS011;15704;48.834;8.736;2023-04-24T06:46:33;2.65;;;1.63;;
28483;SDS011;15704;48.834;8.736;2023-04-24T06:49:00;5.65;;;2.50;;
28483;SDS011;15704;48.834;8.736;2023-04-24T06:51:30;2.40;;;1.92;;
28483;SDS011;15704;48.834;8.736;2023-04-24T06:54:06;2.80;;;1.60;;
28483;SDS011;15704;48.834;8.736;2023-04-24T06:56:32;2.67;;;1.70;;
28483;SDS011;15704;48.834;8.736;2023-04-24T06:59:09;2.80;;;2.28;;
28483;SDS011;15704;48.834;8.736;2023-04-24T07:01:36;3.83;;;1.92;;
28483;SDS011;15704;48.834;8.736;2023-04-24T07:04:02;2.78;;;1.40;;
28483;SDS011;15704;48.834;8.736;2023-04-24T07:06:29;2.13;;;1.67;;
28483;SDS011;15704;48.834;8.736;2023-04-24T07:08:57;3.47;;;1.50;;
28483;SDS011;15704;48.834;8.736;2023-04-24T07:11:23;3.83;;;1.80;;
28483;SDS011;15704;48.834;8.736;2023-04-24T07:13:50;5.72;;;1.70;;
28483;SDS011;15704;48.834;8.736;2023-04-24T07:16:17;4.60;;;1.60;;
28483;SDS011;15704;48.834;8.736;2023-04-24T07:18:44;2.25;;;1.65;;
28483;SDS011;15704;48.834;8.736;2023-04-24T07:21:10;3.55;;;1.65;;
28483;SDS011;15704;48.834;8.736;2023-04-24T07:23:37;3.55;;;1.60;;
28483;SDS011;15704;48.834;8.736;2023-04-24T07:26:04;2.83;;;1.60;;
28483;SDS011;15704;48.834;8.736;2023-04-24T07:28:31;3.28;;;1.75;;
28483;SDS011;15704;48.834;8.736;2023-04-24T07:30:58;3.50;;;2.05;;
28483;SDS011;15704;48.834;8.736;2023-04-24T07:33:34;3.10;;;1.40;;
28483;SDS011;15704;48.834;8.736;2023-04-24T07:36:02;3.88;;;1.83;;
28483;SDS011;15704;48.834;8.736;2023-04-24T07:38:51;3.90;;;1.80;;
28483;SDS011;15704;48.834;8.736;2023-04-24T07:41:17;5.85;;;2.85;;
28483;SDS011;15704;48.834;8.736;2023-04-24T07:43:45;6.25;;;2.35;;
28483;SDS011;15704;48.834;8.736;2023-04-24T07:46:19;10.93;;;3.65;;
28483;SDS011;15704;48.834;8.736;2023-04-24T07:48:46;5.97;;;1.50;;
28483;SDS011;15704;48.834;8.736;2023-04-24T07:51:30;2.63;;;1.83;;
28483;SDS011;15704;48.834;8.736;2023-04-24T07:53:59;3.67;;;1.67;;
28483;SDS011;15704;48.834;8.736;2023-04-24T07:56:26;1.98;;;1.40;;
28483;SDS011;15704;48.834;8.736;2023-04-24T07:58:53;5.18;;;1.88;;
28483;SDS011;15704;48.834;8.736;2023-04-24T08:01:20;2.92;;;1.77;;
28483;SDS011;15704;48.834;8.736;2023-04-24T08:03:47;8.15;;;2.10;;
28483;SDS011;15704;48.834;8.736;2023-04-24T08:06:14;3.60;;;1.55;;
28483;SDS011;15704;48.834;8.736;2023-04-24T08:08:41;3.05;;;1.65;;
28483;SDS011;15704;48.834;8.736;2023-04-24T08:11:11;2.38;;;1.55;;
28483;SDS011;15704;48.834;8.736;2023-04-24T08:13:43;2.72;;;1.50;;
28483;SDS011;15704;48.834;8.736;2023-04-24T08:16:09;2.35;;;1.50;;
28483;SDS011;15704;48.834;8.736;2023-04-24T08:18:36;3.83;;;1.50;;
28483;SDS011;15704;48.834;8.736;2023-04-24T08:21:03;9.55;;;2.00;;
28483;SDS011;15704;48.834;8.736;2023-04-24T08:23:30;2.58;;;1.20;;
28483;SDS011;15704;48.834;8.736;2023-04-24T08:25:57;4.38;;;1.60;;
28483;SDS011;15704;48.834;8.736;2023-04-24T08:28:24;2.22;;;1.10;;
28483;SDS011;15704;48.834;8.736;2023-04-24T08:30:51;1.83;;;1.30;;
28483;SDS011;15704;48.834;8.736;2023-04-24T08:33:22;3.15;;;1.38;;
28483;SDS011;15704;48.834;8.736;2023-04-24T08:35:49;3.55;;;1.80;;
28483;SDS011;15704;48.834;8.736;2023-04-24T08:38:16;2.58;;;1.30;;
28483;SDS011;15704;48.834;8.736;2023-04-24T08:40:43;3.08;;;1.17;;
28483;SDS011;15704;48.834;8.736;2023-04-24T08:43:12;2.38;;;1.40;;
28483;SDS011;15704;48.834;8.736;2023-04-24T08:45:42;6.68;;;1.13;;
28483;SDS011;15704;48.834;8.736;2023-04-24T08:48:15;2.10;;;0.82;;
28483;SDS011;15704;48.834;8.736;2023-04-24T08:50:56;1.25;;;0.93;;
28483;SDS011;15704;48.834;8.736;2023-04-24T08:53:25;2.80;;;1.15;;
28483;SDS011;15704;48.834;8.736;2023-04-24T08:55:53;2.40;;;1.15;;
28483;SDS011;15704;48.834;8.736;2023-04-24T08:58:25;2.47;;;1.63;;
28483;SDS011;15704;48.834;8.736;2023-04-24T09:00:58;3.03;;;1.17;;
28483;SDS011;15704;48.834;8.736;2023-04-24T09:03:29;3.03;;;1.20;;
28483;SDS011;15704;48.834;8.736;2023-04-24T09:05:57;1.75;;;1.15;;
28483;SDS011;15704;48.834;8.736;2023-04-24T09:08:28;4.68;;;1.27;;
28483;SDS011;15704;48.834;8.736;2023-04-24T09:10:56;5.18;;;1.30;;
28483;SDS011;15704;48.834;8.736;2023-04-24T09:13:25;2.17;;;1.40;;
28483;SDS011;15704;48.834;8.736;2023-04-24T09:15:52;2.83;;;1.30;;
28483;SDS011;15704;48.834;8.736;2023-04-24T09:18:20;6.50;;;1.50;;
28483;SDS011;15704;48.834;8.736;2023-04-24T09:23:33;2.20;;;1.38;;
28483;SDS011;15704;48.834;8.736;2023-04-24T09:26:01;2.15;;;1.10;;
28483;SDS011;15704;48.834;8.736;2023-04-24T09:33:30;1.83;;;1.40;;
28483;SDS011;15704;48.834;8.736;2023-04-24T09:35:57;2.70;;;1.40;;
28483;SDS011;15704;48.834;8.736;2023-04-24T09:38:32;4.13;;;1.70;;
28483;SDS011;15704;48.834;8.736;2023-04-24T09:41:01;2.08;;;1.33;;
28483;SDS011;15704;48.834;8.736;2023-04-24T09:43:29;2.85;;;1.38;;
28483;SDS011;15704;48.834;8.736;2023-04-24T09:45:58;3.97;;;1.50;;
28483;SDS011;15704;48.834;8.736;2023-04-24T09:48:35;3.53;;;1.88;;
28483;SDS011;15704;48.834;8.736;2023-04-24T09:51:04;5.60;;;2.58;;
28483;SDS011;15704;48.834;8.736;2023-04-24T09:53:37;6.40;;;1.90;;
28483;SDS011;15704;48.834;8.736;2023-04-24T09:56:08;1.60;;;1.13;;
28483;SDS011;15704;48.834;8.736;2023-04-24T09:58:46;3.65;;;1.52;;
28483;SDS011;15704;48.834;8.736;2023-04-24T10:01:13;6.05;;;1.40;;
28483;SDS011;15704;48.834;8.736;2023-04-24T10:03:40;2.50;;;1.38;;
28483;SDS011;15704;48.834;8.736;2023-04-24T10:06:12;3.42;;;1.30;;
28483;SDS011;15704;48.834;8.736;2023-04-24T10:08:39;1.90;;;1.42;;
28483;SDS011;15704;48.834;8.736;2023-04-24T10:11:06;3.25;;;1.67;;
28483;SDS011;15704;48.834;8.736;2023-04-24T10:13:34;1.85;;;1.25;;
28483;SDS011;15704;48.834;8.736;2023-04-24T10:16:02;4.53;;;2.08;;
28483;SDS011;15704;48.834;8.736;2023-04-24T10:18:30;2.22;;;1.45;;
28483;SDS011;15704;48.834;8.736;2023-04-24T10:20:58;2.63;;;1.10;;
28483;SDS011;15704;48.834;8.736;2023-04-24T10:23:27;3.92;;;1.90;;
28483;SDS011;15704;48.834;8.736;2023-04-24T10:25:54;2.92;;;1.38;;
28483;SDS011;15704;48.834;8.736;2023-04-24T10:28:22;7.25;;;1.40;;
28483;SDS011;15704;48.834;8.736;2023-04-24T10:30:50;17.13;;;3.88;;
28483;SDS011;15704;48.834;8.736;2023-04-24T10:33:21;4.93;;;1.25;;
28483;SDS011;15704;48.834;8.736;2023-04-24T10:35:49;5.38;;;1.60;;
28483;SDS011;15704;48.834;8.736;2023-04-24T10:38:18;4.50;;;1.40;;
28483;SDS011;15704;48.834;8.736;2023-04-24T10:40:50;3.67;;;1.52;;
28483;SDS011;15704;48.834;8.736;2023-04-24T10:43:17;1.98;;;1.08;;
28483;SDS011;15704;48.834;8.736;2023-04-24T10:46:06;3.75;;;1.63;;
28483;SDS011;15704;48.834;8.736;2023-04-24T10:48:32;2.50;;;1.77;;
28483;SDS011;15704;48.834;8.736;2023-04-24T10:50:59;3.85;;;1.60;;
28483;SDS011;15704;48.834;8.736;2023-04-24T10:53:28;3.78;;;2.60;;
28483;SDS011;15704;48.834;8.736;2023-04-24T10:58:45;3.53;;;1.70;;
28483;SDS011;15704;48.834;8.736;2023-04-24T11:01:28;1.40;;;1.02;;
28483;SDS011;15704;48.834;8.736;2023-04-24T11:03:57;1.58;;;1.15;;
28483;SDS011;15704;48.834;8.736;2023-04-24T11:06:33;3.10;;;1.30;;
28483;SDS011;15704;48.834;8.736;2023-04-24T11:11:38;3.35;;;1.55;;
28483;SDS011;15704;48.834;8.736;2023-04-24T11:14:14;2.53;;;1.60;;
28483;SDS011;15704;48.834;8.736;2023-04-24T11:24:48;3.28;;;1.60;;
28483;SDS011;15704;48.834;8.736;2023-04-24T11:27:18;2.47;;;1.45;;
28483;SDS011;15704;48.834;8.736;2023-04-24T11:29:48;4.43;;;1.70;;
28483;SDS011;15704;48.834;8.736;2023-04-24T11:35:15;2.70;;;1.40;;
28483;SDS011;15704;48.834;8.736;2023-04-24T11:37:48;1.85;;;1.40;;
28483;SDS011;15704;48.834;8.736;2023-04-24T11:40:36;2.55;;;1.25;;
28483;SDS011;15704;48.834;8.736;2023-04-24T11:43:04;2.63;;;1.67;;
28483;SDS011;15704;48.834;8.736;2023-04-24T11:45:33;3.67;;;1.58;;
28483;SDS011;15704;48.834;8.736;2023-04-24T11:48:02;2.88;;;1.50;;
28483;SDS011;15704;48.834;8.736;2023-04-24T11:50:30;2.55;;;1.75;;
28483;SDS011;15704;48.834;8.736;2023-04-24T11:52:57;4.03;;;1.50;;
28483;SDS011;15704;48.834;8.736;2023-04-24T11:55:25;2.47;;;1.45;;
28483;SDS011;15704;48.834;8.736;2023-04-24T11:57:54;5.05;;;1.70;;
28483;SDS011;15704;48.834;8.736;2023-04-24T12:00:27;3.60;;;1.50;;
28483;SDS011;15704;48.834;8.736;2023-04-24T12:03:04;2.95;;;1.48;;
28483;SDS011;15704;48.834;8.736;2023-04-24T12:05:32;2.92;;;1.30;;
28483;SDS011;15704;48.834;8.736;2023-04-24T12:07:59;3.17;;;1.60;;
28483;SDS011;15704;48.834;8.736;2023-04-24T12:10:27;4.18;;;1.55;;
28483;SDS011;15704;48.834;8.736;2023-04-24T12:12:55;2.17;;;1.33;;
28483;SDS011;15704;48.834;8.736;2023-04-24T12:15:23;6.93;;;1.83;;
28483;SDS011;15704;48.834;8.736;2023-04-24T12:17:51;2.28;;;1.60;;
28483;SDS011;15704;48.834;8.736;2023-04-24T12:20:30;1.65;;;1.27;;
28483;SDS011;15704;48.834;8.736;2023-04-24T12:23:01;3.78;;;1.15;;
28483;SDS011;15704;48.834;8.736;2023-04-24T12:30:34;1.15;;;1.05;;
28483;SDS011;15704;48.834;8.736;2023-04-24T12:33:04;1.85;;;1.55;;
28483;SDS011;15704;48.834;8.736;2023-04-24T12:35:34;4.65;;;1.98;;
28483;SDS011;15704;48.834;8.736;2023-04-24T12:38:05;1.85;;;1.65;;
28483;SDS011;15704;48.834;8.736;2023-04-24T12:40:36;3.38;;;2.00;;
28483;SDS011;15704;48.834;8.736;2023-04-24T12:43:12;5.25;;;1.90;;
28483;SDS011;15704;48.834;8.736;2023-04-24T12:45:46;7.30;;;2.10;;
28483;SDS011;15704;48.834;8.736;2023-04-24T12:48:14;4.63;;;2.78;;
28483;SDS011;15704;48.834;8.736;2023-04-24T12:50:46;4.43;;;2.50;;
28483;SDS011;15704;48.834;8.736;2023-04-24T12:53:13;4.68;;;2.17;;
28483;SDS011;15704;48.834;8.736;2023-04-24T12:55:41;5.22;;;2.88;;
28483;SDS011;15704;48.834;8.736;2023-04-24T12:58:08;4.88;;;2.53;;
28483;SDS011;15704;48.834;8.736;2023-04-24T13:00:35;3.17;;;2.30;;
28483;SDS011;15704;48.834;8.736;2023-04-24T13:03:03;6.57;;;2.53;;
28483;SDS011;15704;48.834;8.736;2023-04-24T13:05:30;5.72;;;3.30;;
28483;SDS011;15704;48.834;8.736;2023-04-24T13:07:57;6.18;;;2.45;;
28483;SDS011;15704;48.834;8.736;2023-04-24T13:10:23;4.07;;;2.00;;
28483;SDS011;15704;48.834;8.736;2023-04-24T13:12:50;3.40;;;2.33;;
28483;SDS011;15704;48.834;8.736;2023-04-24T13:15:17;7.38;;;2.78;;
28483;SDS011;15704;48.834;8.736;2023-04-24T13:17:43;3.30;;;2.40;;
28483;SDS011;15704;48.834;8.736;2023-04-24T13:20:10;4.88;;;2.60;;
28483;SDS011;15704;48.834;8.736;2023-04-24T13:22:37;4.95;;;2.40;;
28483;SDS011;15704;48.834;8.736;2023-04-24T13:25:04;4.53;;;2.10;;
28483;SDS011;15704;48.834;8.736;2023-04-24T13:27:32;6.80;;;2.55;;
28483;SDS011;15704;48.834;8.736;2023-04-24T13:29:59;4.55;;;2.33;;
28483;SDS011;15704;48.834;8.736;2023-04-24T13:32:25;3.30;;;2.10;;
28483;SDS011;15704;48.834;8.736;2023-04-24T13:34:53;3.70;;;1.95;;
28483;SDS011;15704;48.834;8.736;2023-04-24T13:37:20;2.85;;;1.90;;
28483;SDS011;15704;48.834;8.736;2023-04-24T13:39:48;4.30;;;2.28;;
28483;SDS011;15704;48.834;8.736;2023-04-24T13:42:15;3.60;;;2.20;;
28483;SDS011;15704;48.834;8.736;2023-04-24T13:44:41;4.15;;;2.30;;
28483;SDS011;15704;48.834;8.736;2023-04-24T13:47:08;4.72;;;1.90;;
28483;SDS011;15704;48.834;8.736;2023-04-24T13:49:35;5.22;;;2.05;;
28483;SDS011;15704;48.834;8.736;2023-04-24T13:52:02;2.78;;;2.20;;
28483;SDS011;15704;48.834;8.736;2023-04-24T13:54:29;3.78;;;2.28;;
28483;SDS011;15704;48.834;8.736;2023-04-24T13:56:57;4.72;;;2.42;;
28483;SDS011;15704;48.834;8.736;2023-04-24T13:59:24;3.33;;;1.80;;
28483;SDS011;15704;48.834;8.736;2023-04-24T14:01:51;5.25;;;2.22;;
28483;SDS011;15704;48.834;8.736;2023-04-24T14:04:18;3.97;;;2.00;;
28483;SDS011;15704;48.834;8.736;2023-04-24T14:06:45;3.20;;;2.05;;
28483;SDS011;15704;48.834;8.736;2023-04-24T14:09:12;11.77;;;2.28;;
28483;SDS011;15704;48.834;8.736;2023-04-24T14:11:39;3.10;;;2.00;;
28483;SDS011;15704;48.834;8.736;2023-04-24T14:14:06;5.28;;;2.38;;
28483;SDS011;15704;48.834;8.736;2023-04-24T14:16:34;4.45;;;2.03;;
28483;SDS011;15704;48.834;8.736;2023-04-24T14:19:01;2.97;;;1.88;;
28483;SDS011;15704;48.834;8.736;2023-04-24T14:21:28;5.10;;;1.67;;
28483;SDS011;15704;48.834;8.736;2023-04-24T14:23:54;3.75;;;2.05;;
28483;SDS011;15704;48.834;8.736;2023-04-24T14:26:21;4.05;;;2.42;;
28483;SDS011;15704;48.834;8.736;2023-04-24T14:28:48;4.90;;;2.42;;
28483;SDS011;15704;48.834;8.736;2023-04-24T14:31:16;3.33;;;2.20;;
28483;SDS011;15704;48.834;8.736;2023-04-24T14:33:43;10.02;;;3.75;;
28483;SDS011;15704;48.834;8.736;2023-04-24T14:36:10;5.20;;;3.17;;
28483;SDS011;15704;48.834;8.736;2023-04-24T14:38:37;7.63;;;2.53;;
28483;SDS011;15704;48.834;8.736;2023-04-24T14:41:06;3.78;;;2.35;;
28483;SDS011;15704;48.834;8.736;2023-04-24T14:43:39;3.72;;;2.20;;
28483;SDS011;15704;48.834;8.736;2023-04-24T14:46:06;5.75;;;2.72;;
28483;SDS011;15704;48.834;8.736;2023-04-24T14:48:33;10.05;;;2.50;;
28483;SDS011;15704;48.834;8.736;2023-04-24T14:51:00;4.35;;;2.03;;
28483;SDS011;15704;48.834;8.736;2023-04-24T14:53:26;4.88;;;2.00;;
28483;SDS011;15704;48.834;8.736;2023-04-24T14:55:53;2.88;;;1.60;;
28483;SDS011;15704;48.834;8.736;2023-04-24T14:58:20;2.38;;;1.73;;
28483;SDS011;15704;48.834;8.736;2023-04-24T15:00:47;3.85;;;1.90;;
28483;SDS011;15704;48.834;8.736;2023-04-24T15:03:18;2.92;;;2.13;;
28483;SDS011;15704;48.834;8.736;2023-04-24T15:05:45;9.00;;;2.40;;
28483;SDS011;15704;48.834;8.736;2023-04-24T15:08:13;1.95;;;1.58;;
28483;SDS011;15704;48.834;8.736;2023-04-24T15:10:40;4.30;;;2.10;;
28483;SDS011;15704;48.834;8.736;2023-04-24T15:13:07;3.17;;;2.05;;
28483;SDS011;15704;48.834;8.736;2023-04-24T15:15:33;3.03;;;1.60;;
28483;SDS011;15704;48.834;8.736;2023-04-24T15:18:00;2.33;;;1.92;;
28483;SDS011;15704;48.834;8.736;2023-04-24T15:20:27;3.55;;;1.92;;
28483;SDS011;15704;48.834;8.736;2023-04-24T15:22:54;3.13;;;2.00;;
28483;SDS011;15704;48.834;8.736;2023-04-24T15:25:21;5.00;;;2.10;;
28483;SDS011;15704;48.834;8.736;2023-04-24T15:27:47;16.75;;;2.17;;